Time;durP1;ratioP1;P1;durP2;ratioP2;P2;SDS_P1;SDS_P2;PMS_P1;PMS_P2;Temp;Humidity;BMP_temperature;BMP_pressure;BME280_temperature;BME280_humidity;BME280_pressure;Samples;Min_cycle;Max_cycle;Signal;HPM_P1;HPM_P2
2022/03/24 00:02:13;;;;;;;18.67;11.33;;;9.20;99.90;;;;;;5069278;28;20228;-69
2022/03/24 00:04:40;;;;;;;15.43;11.32;;;9.10;99.90;;;;;;5065586;28;20463;-68
2022/03/24 00:07:07;;;;;;;16.17;12.18;;;9.10;99.90;;;;;;5070783;28;20205;-70
2022/03/24 00:09:34;;;;;;;17.55;11.95;;;9.00;99.90;;;;;;5062887;28;20714;-69
2022/03/24 00:12:01;;;;;;;17.67;12.45;;;9.00;99.90;;;;;;5062923;28;20206;-69
2022/03/24 00:14:29;;;;;;;19.45;13.80;;;8.90;99.90;;;;;;5057915;28;20213;-69
2022/03/24 00:16:55;;;;;;;13.50;10.25;;;8.80;99.90;;;;;;5059856;28;20249;-69
2022/03/24 00:19:22;;;;;;;15.80;13.32;;;8.80;99.90;;;;;;5058486;28;20197;-69
2022/03/24 00:21:49;;;;;;;15.10;11.75;;;8.70;99.90;;;;;;5066519;28;20220;-70
2022/03/24 00:24:17;;;;;;;14.68;12.30;;;8.70;99.90;;;;;;5069640;28;20950;-70
2022/03/24 00:26:43;;;;;;;18.13;13.48;;;8.70;99.90;;;;;;5061674;28;20332;-70
2022/03/24 00:29:10;;;;;;;13.52;11.70;;;8.60;99.90;;;;;;5067917;28;20200;-69
2022/03/24 00:31:38;;;;;;;19.75;13.60;;;8.60;99.90;;;;;;5065815;28;20298;-71
2022/03/24 00:34:05;;;;;;;22.65;12.07;;;8.60;99.90;;;;;;5060297;28;20201;-71
2022/03/24 00:36:32;;;;;;;15.90;10.45;;;8.60;99.90;;;;;;5054964;28;20336;-71
2022/03/24 00:38:59;;;;;;;13.13;10.52;;;8.50;99.90;;;;;;5054969;28;20576;-69
2022/03/24 00:41:25;;;;;;;17.58;11.48;;;8.50;99.90;;;;;;5074498;22;20232;-69
2022/03/24 00:43:52;;;;;;;16.17;12.60;;;8.40;99.90;;;;;;5083622;28;20675;-70
2022/03/24 00:46:21;;;;;;;15.88;11.82;;;8.30;99.90;;;;;;5089322;28;20208;-69
2022/03/24 00:48:49;;;;;;;15.60;11.48;;;8.30;99.90;;;;;;5082418;28;20211;-69
2022/03/24 00:51:16;;;;;;;18.98;11.68;;;8.20;99.90;;;;;;5086827;28;20237;-70
2022/03/24 00:53:42;;;;;;;16.38;11.05;;;8.20;99.90;;;;;;5070661;28;20212;-70
2022/03/24 00:56:10;;;;;;;17.67;11.80;;;8.10;99.90;;;;;;5075856;28;20230;-69
2022/03/24 00:58:37;;;;;;;16.92;10.23;;;8.10;99.90;;;;;;5073786;28;20664;-69
2022/03/24 01:01:04;;;;;;;11.50;8.57;;;8.00;99.90;;;;;;5070804;28;20241;-71
2022/03/24 01:03:31;;;;;;;14.48;10.45;;;8.00;99.90;;;;;;5070139;28;20228;-71
2022/03/24 01:05:59;;;;;;;15.95;11.05;;;7.90;99.90;;;;;;5071973;28;20266;-70
2022/03/24 01:08:25;;;;;;;14.43;10.95;;;7.90;99.90;;;;;;5070587;28;20235;-71
2022/03/24 01:10:55;;;;;;;13.15;9.73;;;7.90;99.90;;;;;;5078491;28;20228;-70
2022/03/24 01:13:22;;;;;;;14.80;10.68;;;7.80;99.90;;;;;;5070279;28;20220;-69
2022/03/24 01:15:50;;;;;;;16.08;10.25;;;7.80;99.90;;;;;;5076362;28;20208;-70
2022/03/24 01:18:19;;;;;;;14.68;9.65;;;7.70;99.90;;;;;;5076993;28;20208;-70
2022/03/24 01:20:45;;;;;;;16.55;9.68;;;7.70;99.90;;;;;;5067478;28;20284;-69
2022/03/24 01:23:14;;;;;;;12.13;8.93;;;7.60;99.90;;;;;;5070014;28;20280;-71
2022/03/24 01:25:42;;;;;;;20.58;11.50;;;7.60;99.90;;;;;;5072291;28;20219;-70
2022/03/24 01:28:09;;;;;;;10.90;7.78;;;7.60;99.90;;;;;;5072339;28;20743;-69
2022/03/24 01:30:38;;;;;;;12.68;9.90;;;7.50;99.90;;;;;;5068698;28;20251;-70
2022/03/24 01:33:04;;;;;;;11.52;9.60;;;7.50;99.90;;;;;;5069915;28;20642;-70
2022/03/24 01:35:31;;;;;;;10.80;7.53;;;7.50;99.90;;;;;;5069829;28;20254;-71
2022/03/24 01:37:58;;;;;;;11.20;10.00;;;7.40;99.90;;;;;;5069614;28;20204;-70
2022/03/24 01:40:26;;;;;;;17.48;10.35;;;7.40;99.90;;;;;;5065696;28;20204;-70
2022/03/24 01:42:54;;;;;;;12.20;9.95;;;7.40;99.90;;;;;;5069888;28;20796;-70
2022/03/24 01:45:21;;;;;;;11.73;9.00;;;7.40;99.90;;;;;;5069444;28;20596;-70
2022/03/24 01:47:48;;;;;;;12.45;9.82;;;7.30;99.90;;;;;;5079274;28;20196;-70
2022/03/24 01:50:15;;;;;;;15.75;11.00;;;7.30;99.90;;;;;;5075694;28;20231;-70
2022/03/24 01:52:43;;;;;;;11.60;9.25;;;7.30;99.90;;;;;;5072359;28;20228;-70
2022/03/24 01:55:11;;;;;;;10.02;8.30;;;7.20;99.90;;;;;;5069457;28;20253;-70
2022/03/24 01:57:40;;;;;;;12.07;10.20;;;7.20;99.90;;;;;;5066585;28;20267;-71
2022/03/24 02:00:09;;;;;;;12.02;8.98;;;7.20;99.90;;;;;;5076611;28;20301;-70
2022/03/24 02:02:37;;;;;;;11.20;9.82;;;7.10;99.90;;;;;;5069273;28;20593;-69
2022/03/24 02:05:04;;;;;;;10.63;8.45;;;7.10;99.90;;;;;;5079729;28;20656;-72
2022/03/24 02:07:32;;;;;;;21.40;9.85;;;7.10;99.90;;;;;;5072134;28;20208;-71
2022/03/24 02:09:59;;;;;;;10.10;8.48;;;7.00;99.90;;;;;;5068055;28;20295;-71
2022/03/24 02:12:27;;;;;;;13.68;10.75;;;7.00;99.90;;;;;;5077554;28;20814;-70
2022/03/24 02:14:58;;;;;;;13.00;9.30;;;7.00;99.90;;;;;;5070563;28;20206;-70
2022/03/24 02:17:28;;;;;;;11.55;10.35;;;7.00;99.90;;;;;;5068151;28;20212;-70
2022/03/24 02:19:57;;;;;;;17.60;10.82;;;6.90;99.90;;;;;;5069999;28;20219;-70
2022/03/24 02:22:26;;;;;;;11.80;9.68;;;6.90;99.90;;;;;;5069108;28;20230;-70
2022/03/24 02:24:52;;;;;;;11.93;7.32;;;6.90;99.90;;;;;;5073275;28;20261;-70
2022/03/24 02:27:19;;;;;;;11.80;9.50;;;6.80;99.90;;;;;;5068829;28;20203;-70
2022/03/24 02:29:48;;;;;;;12.07;8.80;;;6.80;99.90;;;;;;5068839;28;20296;-71
2022/03/24 02:32:19;;;;;;;9.65;8.40;;;6.70;99.90;;;;;;5070890;28;20250;-70
2022/03/24 02:34:48;;;;;;;12.57;9.63;;;6.70;99.90;;;;;;5075941;28;20204;-70
2022/03/24 02:37:17;;;;;;;12.00;7.75;;;6.70;99.90;;;;;;5071019;28;20261;-71
2022/03/24 02:39:47;;;;;;;13.40;9.35;;;6.70;99.90;;;;;;5065504;28;20216;-70
2022/03/24 02:42:15;;;;;;;10.65;9.57;;;6.70;99.90;;;;;;5069481;28;20232;-71
2022/03/24 02:44:43;;;;;;;15.70;9.90;;;6.70;99.90;;;;;;5068425;28;20256;-70
2022/03/24 02:47:11;;;;;;;10.55;9.40;;;6.60;99.90;;;;;;5076695;28;20211;-71
2022/03/24 02:49:38;;;;;;;9.40;8.45;;;6.60;99.90;;;;;;5071700;28;20600;-71
2022/03/24 02:52:07;;;;;;;10.40;9.05;;;6.60;99.90;;;;;;5074242;28;20247;-70
2022/03/24 02:54:35;;;;;;;10.68;9.50;;;6.50;99.90;;;;;;5068218;28;20285;-70
2022/03/24 02:57:03;;;;;;;13.75;9.00;;;6.50;99.90;;;;;;5073848;28;20645;-71
2022/03/24 02:59:30;;;;;;;12.10;9.75;;;6.50;99.90;;;;;;5067972;28;20257;-70
2022/03/24 03:01:59;;;;;;;12.07;9.40;;;6.50;99.90;;;;;;5074190;28;20270;-71
2022/03/24 03:04:26;;;;;;;13.05;9.70;;;6.40;99.90;;;;;;5069687;28;20212;-71
2022/03/24 03:06:53;;;;;;;9.27;8.23;;;6.40;99.90;;;;;;5068818;28;20204;-70
2022/03/24 03:09:20;;;;;;;12.70;9.27;;;6.50;99.90;;;;;;5077436;28;20198;-70
2022/03/24 03:11:47;;;;;;;12.43;9.30;;;6.40;99.90;;;;;;5079032;28;20282;-70
2022/03/24 03:14:17;;;;;;;12.85;9.23;;;6.40;99.90;;;;;;5078265;28;20254;-70
2022/03/24 03:16:45;;;;;;;12.27;9.60;;;6.40;99.90;;;;;;5077688;28;20204;-71
2022/03/24 03:19:12;;;;;;;12.15;8.65;;;6.40;99.90;;;;;;5077892;28;20644;-70
2022/03/24 03:21:40;;;;;;;11.23;9.73;;;6.30;99.90;;;;;;5071764;28;20291;-70
2022/03/24 03:24:08;;;;;;;14.18;9.43;;;6.30;99.90;;;;;;5074154;28;20333;-70
2022/03/24 03:26:35;;;;;;;12.88;9.07;;;6.30;99.90;;;;;;5072191;28;20200;-70
2022/03/24 03:29:01;;;;;;;10.75;8.88;;;6.30;99.90;;;;;;5072240;28;20311;-70
2022/03/24 03:31:29;;;;;;;10.20;8.52;;;6.20;99.90;;;;;;5071436;28;20236;-71
2022/03/24 03:33:56;;;;;;;12.65;7.45;;;6.20;99.90;;;;;;5076528;28;20852;-72
2022/03/24 03:36:24;;;;;;;9.82;8.05;;;6.10;99.90;;;;;;5072397;28;20585;-70
2022/03/24 03:38:51;;;;;;;13.05;10.23;;;6.10;99.90;;;;;;5075645;28;20213;-71
2022/03/24 03:41:21;;;;;;;17.40;8.65;;;6.00;99.90;;;;;;5073550;28;20278;-70
2022/03/24 03:43:48;;;;;;;8.77;7.85;;;6.00;99.90;;;;;;5074601;28;20201;-70
2022/03/24 03:46:16;;;;;;;9.57;7.15;;;5.90;99.90;;;;;;5072146;28;20210;-70
2022/03/24 03:48:44;;;;;;;4.65;4.55;;;5.90;99.90;;;;;;5072670;28;20216;-70
2022/03/24 03:51:11;;;;;;;15.57;8.90;;;5.90;99.90;;;;;;5068429;28;20231;-70
2022/03/24 03:53:38;;;;;;;10.95;9.05;;;5.90;99.90;;;;;;5070896;28;20197;-70
2022/03/24 03:56:06;;;;;;;9.82;8.82;;;5.90;99.90;;;;;;5070662;28;20205;-71
2022/03/24 03:58:35;;;;;;;9.88;7.95;;;5.90;99.90;;;;;;5072202;28;20197;-70
2022/03/24 04:01:01;;;;;;;10.63;8.70;;;5.90;99.90;;;;;;5071103;28;20211;-70
2022/03/24 04:03:30;;;;;;;19.40;9.38;;;5.80;99.90;;;;;;5082326;28;20581;-70
2022/03/24 04:06:00;;;;;;;14.18;9.55;;;5.80;99.90;;;;;;5074861;28;20249;-71
2022/03/24 04:08:27;;;;;;;15.20;8.82;;;5.80;99.90;;;;;;5071124;28;20255;-71
2022/03/24 04:10:54;;;;;;;13.88;9.65;;;5.80;99.90;;;;;;5068926;28;20287;-70
2022/03/24 04:13:21;;;;;;;11.88;8.82;;;5.80;99.90;;;;;;5072973;28;20212;-71
2022/03/24 04:15:49;;;;;;;17.40;12.15;;;5.70;99.90;;;;;;5065535;28;20679;-71
2022/03/24 04:18:17;;;;;;;11.45;9.75;;;5.70;99.90;;;;;;5082829;28;20295;-71
2022/03/24 04:20:44;;;;;;;13.05;10.45;;;5.70;99.90;;;;;;5072410;28;20224;-71
2022/03/24 04:23:13;;;;;;;14.10;9.88;;;5.60;99.90;;;;;;5075310;28;20258;-70
2022/03/24 04:25:40;;;;;;;14.63;8.32;;;5.70;99.90;;;;;;5084981;28;20278;-71
2022/03/24 04:28:07;;;;;;;10.73;8.32;;;5.70;99.90;;;;;;5069591;28;20229;-71
2022/03/24 04:30:34;;;;;;;11.35;10.05;;;5.70;99.90;;;;;;5067349;28;20204;-71
2022/03/24 04:33:01;;;;;;;11.80;8.80;;;5.60;99.90;;;;;;5067639;28;20223;-71
2022/03/24 04:35:28;;;;;;;10.63;7.63;;;5.60;99.90;;;;;;5075100;28;20810;-71
2022/03/24 04:37:55;;;;;;;11.95;8.20;;;5.60;99.90;;;;;;5071147;28;20279;-72
2022/03/24 04:40:24;;;;;;;15.52;10.73;;;5.50;99.90;;;;;;5075375;28;20200;-71
2022/03/24 04:42:53;;;;;;;10.40;9.30;;;5.50;99.90;;;;;;5075533;28;20281;-70
2022/03/24 04:45:20;;;;;;;9.57;8.48;;;5.50;99.90;;;;;;5074649;28;20202;-70
2022/03/24 04:47:48;;;;;;;12.10;8.50;;;5.50;99.90;;;;;;5076469;28;20264;-70
2022/03/24 04:50:17;;;;;;;7.20;6.47;;;5.50;99.90;;;;;;5071072;28;20282;-71
2022/03/24 04:52:44;;;;;;;12.70;9.60;;;5.50;99.90;;;;;;5070664;28;20292;-71
2022/03/24 04:55:11;;;;;;;15.07;9.27;;;5.40;99.90;;;;;;5075155;28;20319;-71
2022/03/24 04:57:40;;;;;;;17.55;10.20;;;5.40;99.90;;;;;;5075872;28;20641;-72
2022/03/24 05:00:09;;;;;;;14.05;9.25;;;5.40;99.90;;;;;;5070523;28;20642;-70
2022/03/24 05:02:36;;;;;;;13.38;10.13;;;5.40;99.90;;;;;;5072346;28;20220;-72
2022/03/24 05:05:03;;;;;;;14.73;11.18;;;5.30;99.90;;;;;;5065287;28;20205;-72
2022/03/24 05:07:30;;;;;;;8.68;7.53;;;5.30;99.90;;;;;;5067131;28;20204;-71
2022/03/24 05:09:56;;;;;;;11.57;9.75;;;5.30;99.90;;;;;;5069760;28;20672;-71
2022/03/24 05:12:23;;;;;;;11.32;8.90;;;5.30;99.90;;;;;;5063198;28;20287;-69
2022/03/24 05:14:51;;;;;;;13.32;8.52;;;5.20;99.90;;;;;;5069665;28;20213;-71
2022/03/24 05:17:18;;;;;;;14.10;8.95;;;5.20;99.90;;;;;;5075965;28;20204;-70
2022/03/24 05:19:48;;;;;;;11.93;8.70;;;5.20;99.90;;;;;;5071655;28;20220;-71
2022/03/24 05:22:15;;;;;;;18.67;9.82;;;5.10;99.90;;;;;;5081603;28;20217;-70
2022/03/24 05:24:42;;;;;;;13.18;9.32;;;5.10;99.90;;;;;;5070143;28;20250;-70
2022/03/24 05:27:10;;;;;;;9.70;6.70;;;5.10;99.90;;;;;;5061197;28;20274;-71
2022/03/24 05:29:37;;;;;;;19.60;11.82;;;5.10;99.90;;;;;;5064192;28;20528;-69
2022/03/24 05:32:06;;;;;;;13.32;10.20;;;5.10;99.90;;;;;;5066132;28;20710;-70
2022/03/24 05:34:33;;;;;;;12.30;10.10;;;5.10;99.90;;;;;;5067617;28;20209;-69
2022/03/24 05:37:00;;;;;;;11.55;8.93;;;5.10;99.90;;;;;;5069796;28;20201;-70
2022/03/24 05:39:27;;;;;;;15.05;9.88;;;5.10;99.90;;;;;;5068963;28;20276;-69
2022/03/24 05:41:54;;;;;;;12.40;9.18;;;5.10;99.90;;;;;;5067247;28;20229;-69
2022/03/24 05:44:21;;;;;;;11.68;10.48;;;5.10;99.90;;;;;;5065766;28;20254;-67
2022/03/24 05:46:48;;;;;;;14.77;9.45;;;5.10;99.90;;;;;;5065406;28;20201;-67
2022/03/24 05:49:18;;;;;;;9.75;8.75;;;5.10;99.90;;;;;;5068861;28;20201;-68
2022/03/24 05:51:45;;;;;;;11.30;9.20;;;5.10;99.90;;;;;;5069591;28;20236;-67
2022/03/24 05:54:13;;;;;;;12.18;8.77;;;5.10;99.90;;;;;;5069276;28;20201;-68
2022/03/24 05:56:39;;;;;;;12.80;10.40;;;5.10;99.90;;;;;;5072539;28;20205;-67
2022/03/24 05:59:06;;;;;;;11.13;9.35;;;5.20;99.90;;;;;;5074132;28;20692;-67
2022/03/24 06:01:33;;;;;;;10.20;9.00;;;5.20;99.90;;;;;;5070640;28;20703;-67
2022/03/24 06:04:02;;;;;;;11.93;7.88;;;5.20;99.90;;;;;;5075172;28;20280;-69
2022/03/24 06:06:34;;;;;;;16.70;9.95;;;5.20;99.90;;;;;;5067365;28;20258;-70
2022/03/24 06:09:03;;;;;;;12.18;8.23;;;5.20;99.90;;;;;;5068530;28;20200;-69
2022/03/24 06:11:31;;;;;;;12.27;8.98;;;5.20;99.90;;;;;;5061230;28;20224;-70
2022/03/24 06:13:58;;;;;;;19.88;12.05;;;5.20;99.90;;;;;;5064139;28;20203;-70
2022/03/24 06:16:24;;;;;;;11.93;8.75;;;5.20;99.90;;;;;;5062689;28;20219;-70
2022/03/24 06:18:51;;;;;;;13.45;9.20;;;5.20;99.90;;;;;;5064532;28;20653;-69
2022/03/24 06:21:18;;;;;;;23.60;10.57;;;5.30;99.90;;;;;;5067361;28;20267;-68
2022/03/24 06:23:46;;;;;;;15.15;10.07;;;5.30;99.90;;;;;;5067489;28;20209;-68
2022/03/24 06:26:12;;;;;;;18.15;10.15;;;5.30;99.90;;;;;;5070434;28;20209;-69
2022/03/24 06:28:41;;;;;;;14.32;9.05;;;5.30;99.90;;;;;;5070114;28;20205;-69
2022/03/24 06:31:07;;;;;;;20.05;10.05;;;5.40;99.90;;;;;;5067997;28;20244;-66
2022/03/24 06:33:35;;;;;;;13.20;8.52;;;5.40;99.90;;;;;;5069662;28;20329;-69
2022/03/24 06:36:01;;;;;;;10.77;9.43;;;5.40;99.90;;;;;;5068905;28;20201;-68
2022/03/24 06:38:28;;;;;;;11.27;9.82;;;5.40;99.90;;;;;;5067589;28;20598;-67
2022/03/24 06:40:56;;;;;;;13.05;9.63;;;5.40;99.90;;;;;;5066649;28;20201;-67
2022/03/24 06:43:25;;;;;;;9.93;8.27;;;5.50;99.90;;;;;;5067638;28;20738;-67
2022/03/24 06:45:52;;;;;;;15.38;9.93;;;5.50;99.90;;;;;;5061043;28;20677;-70
2022/03/24 06:48:18;;;;;;;11.88;10.07;;;5.50;99.90;;;;;;5057649;28;20207;-67
2022/03/24 06:50:45;;;;;;;9.30;8.02;;;5.60;99.90;;;;;;5059438;28;20204;-70
2022/03/24 06:53:12;;;;;;;19.95;10.90;;;5.60;99.90;;;;;;5060338;28;20220;-69
2022/03/24 06:55:39;;;;;;;10.75;9.10;;;5.70;99.90;;;;;;5067546;28;20207;-69
2022/03/24 06:58:07;;;;;;;15.52;8.98;;;5.70;99.90;;;;;;5067923;28;20675;-69
2022/03/24 07:00:33;;;;;;;19.17;11.10;;;5.80;99.90;;;;;;5067176;28;20292;-69
2022/03/24 07:03:01;;;;;;;14.02;9.25;;;5.90;99.90;;;;;;5082712;22;20232;-73
2022/03/24 07:05:28;;;;;;;14.65;10.18;;;6.00;99.90;;;;;;5063946;28;20205;-66
2022/03/24 07:07:55;;;;;;;17.08;12.18;;;6.10;99.90;;;;;;5058707;28;20301;-67
2022/03/24 07:10:22;;;;;;;13.30;11.27;;;6.20;99.90;;;;;;5058448;28;20284;-71
2022/03/24 07:12:49;;;;;;;15.05;11.02;;;6.30;99.90;;;;;;5058585;28;20272;-70
2022/03/24 07:15:18;;;;;;;14.38;11.05;;;6.50;99.90;;;;;;5053756;28;20302;-73
2022/03/24 07:17:45;;;;;;;12.38;10.13;;;6.50;99.90;;;;;;5046458;28;20695;-72
2022/03/24 07:20:12;;;;;;;14.90;10.13;;;6.60;99.90;;;;;;5043770;28;20263;-72
2022/03/24 07:22:39;;;;;;;18.55;11.63;;;6.70;99.90;;;;;;5042865;28;20227;-73
2022/03/24 07:25:07;;;;;;;18.38;10.68;;;6.80;99.90;;;;;;5043584;28;20216;-72
2022/03/24 07:27:34;;;;;;;15.43;10.77;;;7.00;99.90;;;;;;5043028;28;20300;-73
2022/03/24 07:30:01;;;;;;;11.18;10.07;;;7.10;99.90;;;;;;5039550;28;20241;-72
2022/03/24 07:32:30;;;;;;;14.57;10.30;;;7.30;99.90;;;;;;5045223;28;20233;-72
2022/03/24 07:34:57;;;;;;;19.80;12.00;;;7.50;99.90;;;;;;5043283;28;20210;-72
2022/03/24 07:37:23;;;;;;;14.63;8.95;;;7.70;99.90;;;;;;5048075;28;20198;-72
2022/03/24 07:39:50;;;;;;;17.83;12.68;;;7.80;99.90;;;;;;5047600;28;20231;-71
2022/03/24 07:42:17;;;;;;;19.42;12.82;;;8.00;99.90;;;;;;5048381;28;20311;-69
2022/03/24 07:44:43;;;;;;;15.43;10.95;;;8.10;99.90;;;;;;5044318;28;20213;-70
2022/03/24 07:47:10;;;;;;;13.70;11.32;;;8.20;99.90;;;;;;5039053;28;20210;-71
2022/03/24 07:49:38;;;;;;;14.68;11.60;;;8.40;99.90;;;;;;5038967;28;20202;-70
2022/03/24 07:52:11;;;;;;;14.65;10.70;;;8.60;99.90;;;;;;5046810;28;20257;-72
2022/03/24 07:54:49;;;;;;;14.52;10.55;;;8.60;99.90;;;;;;5051513;28;20694;-71
2022/03/24 07:57:16;;;;;;;17.38;11.50;;;8.70;99.90;;;;;;5045535;28;20701;-69
2022/03/24 07:59:42;;;;;;;17.70;11.63;;;8.90;99.90;;;;;;5045498;28;20277;-73
2022/03/24 08:02:09;;;;;;;19.45;11.85;;;9.10;99.90;;;;;;5042408;28;20244;-73
2022/03/24 08:04:36;;;;;;;11.82;9.88;;;9.30;99.90;;;;;;5044561;28;20209;-74
2022/03/24 08:07:04;;;;;;;18.33;11.68;;;9.60;99.90;;;;;;5046894;28;20206;-74
2022/03/24 08:09:33;;;;;;;12.23;10.87;;;9.80;99.90;;;;;;5053467;28;20270;-64
2022/03/24 08:12:00;;;;;;;14.73;11.33;;;9.90;99.90;;;;;;5050103;28;20546;-74
2022/03/24 08:14:26;;;;;;;17.03;12.63;;;10.20;99.90;;;;;;5050282;28;20837;-72
2022/03/24 08:16:53;;;;;;;14.80;11.60;;;10.30;99.90;;;;;;5058708;28;20456;-71
2022/03/24 08:19:21;;;;;;;21.17;11.50;;;10.50;99.90;;;;;;5054528;28;20475;-73
2022/03/24 08:21:47;;;;;;;18.33;12.87;;;10.60;99.90;;;;;;5061422;28;20488;-79
2022/03/24 08:24:16;;;;;;;14.10;11.60;;;10.80;99.90;;;;;;5055287;28;20449;-73
2022/03/24 08:26:43;;;;;;;16.20;10.67;;;11.00;99.90;;;;;;5049707;28;21210;-75
2022/03/24 08:29:11;;;;;;;14.03;11.17;;;11.20;99.90;;;;;;5050287;28;20467;-75
2022/03/24 08:31:38;;;;;;;19.43;12.17;;;11.30;99.90;;;;;;5048876;28;20479;-80
2022/03/24 08:34:04;;;;;;;21.33;12.17;;;11.40;99.90;;;;;;5053346;28;20491;-79
2022/03/24 08:36:31;;;;;;;19.13;13.10;;;11.60;99.90;;;;;;5049522;28;20456;-77
2022/03/24 08:38:59;;;;;;;15.73;13.17;;;11.80;99.90;;;;;;5042894;28;20449;-77
2022/03/24 08:41:27;;;;;;;15.10;12.10;;;11.90;99.90;;;;;;5049081;28;20462;-76
2022/03/24 08:43:54;;;;;;;16.60;12.63;;;12.10;99.90;;;;;;5048238;28;20452;-78
2022/03/24 08:46:25;;;;;;;13.53;11.60;;;12.20;99.90;;;;;;5052415;28;20519;-78
2022/03/24 08:48:52;;;;;;;19.57;14.10;;;12.40;99.90;;;;;;5056645;28;21102;-69
2022/03/24 08:51:19;;;;;;;19.60;13.67;;;12.60;99.90;;;;;;5052615;28;20542;-68
2022/03/24 08:53:46;;;;;;;18.00;13.00;;;12.80;99.90;;;;;;5060170;28;20479;-70
2022/03/24 08:56:13;;;;;;;15.67;10.83;;;13.00;99.90;;;;;;5042163;28;20456;-70
2022/03/24 08:58:41;;;;;;;21.87;13.43;;;13.20;99.90;;;;;;5045864;28;20486;-69
2022/03/24 09:01:07;;;;;;;18.00;14.70;;;13.30;99.90;;;;;;5049305;28;20448;-69
2022/03/24 09:03:34;;;;;;;21.90;13.27;;;13.50;99.90;;;;;;5047314;28;20468;-73
2022/03/24 09:06:01;;;;;;;18.67;13.53;;;13.70;99.90;;;;;;5046715;28;20460;-74
2022/03/24 09:08:27;;;;;;;21.43;16.07;;;13.90;99.90;;;;;;5045891;28;20452;-73
2022/03/24 09:10:54;;;;;;;24.13;16.57;;;14.10;99.90;;;;;;5046459;28;20526;-76
2022/03/24 09:13:21;;;;;;;21.87;14.87;;;14.30;99.90;;;;;;5047276;28;20483;-74
2022/03/24 09:15:49;;;;;;;18.47;14.43;;;14.40;99.90;;;;;;5037697;28;20509;-73
2022/03/24 09:18:15;;;;;;;21.40;16.13;;;14.60;99.90;;;;;;5048812;28;20532;-72
2022/03/24 09:20:42;;;;;;;19.27;15.40;;;14.70;99.90;;;;;;5044318;28;20459;-74
2022/03/24 09:23:09;;;;;;;20.37;13.90;;;14.90;99.90;;;;;;5046822;28;20472;-74
2022/03/24 09:25:38;;;;;;;24.37;14.40;;;15.00;99.90;;;;;;5048717;28;20563;-73
2022/03/24 09:28:06;;;;;;;21.77;15.37;;;15.20;99.90;;;;;;5053047;28;20500;-74
2022/03/24 09:30:33;;;;;;;19.60;14.20;;;15.30;99.90;;;;;;5057420;28;20547;-74
2022/03/24 09:33:01;;;;;;;17.87;14.10;;;15.50;99.90;;;;;;5046684;28;20644;-74
2022/03/24 09:35:28;;;;;;;20.60;14.20;;;15.50;99.90;;;;;;5047594;28;20509;-74
2022/03/24 09:37:55;;;;;;;20.97;14.80;;;15.80;99.90;;;;;;5041778;28;20453;-74
2022/03/24 09:40:22;;;;;;;17.93;13.50;;;16.00;99.90;;;;;;5046072;28;20448;-73
2022/03/24 09:42:49;;;;;;;19.63;15.73;;;16.10;99.90;;;;;;5047172;28;20476;-74
2022/03/24 09:45:15;;;;;;;20.10;15.00;;;16.20;99.90;;;;;;5048934;28;20463;-73
2022/03/24 09:47:43;;;;;;;19.33;13.30;;;16.40;99.60;;;;;;5048484;28;20467;-65
2022/03/24 09:50:12;;;;;;;20.33;14.20;;;16.60;99.20;;;;;;5046297;28;20502;-66
2022/03/24 09:52:40;;;;;;;23.10;15.73;;;16.80;99.20;;;;;;5044924;28;21057;-65
2022/03/24 09:55:08;;;;;;;20.90;15.00;;;17.00;99.10;;;;;;5043861;28;20490;-65
2022/03/24 09:57:35;;;;;;;20.47;14.50;;;17.10;98.90;;;;;;5044763;28;20448;-63
2022/03/24 10:00:03;;;;;;;27.10;16.80;;;17.20;97.50;;;;;;5046649;28;20542;-72
2022/03/24 10:02:30;;;;;;;23.10;15.50;;;17.30;97.10;;;;;;5047254;28;20547;-72
2022/03/24 10:05:00;;;;;;;17.50;14.73;;;17.40;96.10;;;;;;5049040;28;20521;-72
2022/03/24 10:07:30;;;;;;;21.60;15.30;;;17.50;96.40;;;;;;5047237;28;20541;-72
2022/03/24 10:09:59;;;;;;;20.93;16.27;;;17.60;95.60;;;;;;5040716;28;20452;-73
2022/03/24 10:12:28;;;;;;;22.33;13.77;;;17.80;95.60;;;;;;5044106;28;20555;-72
2022/03/24 10:15:00;;;;;;;23.53;16.17;;;18.00;94.60;;;;;;5046288;28;20465;-73
2022/03/24 10:17:27;;;;;;;18.37;14.90;;;18.20;94.20;;;;;;5047156;28;20887;-73
2022/03/24 10:20:03;;;;;;;25.87;17.80;;;18.20;93.00;;;;;;5055844;28;20533;-72
2022/03/24 10:22:31;;;;;;;21.67;16.00;;;18.40;92.60;;;;;;5051763;28;20475;-74
2022/03/24 10:24:58;;;;;;;19.07;16.07;;;18.60;92.70;;;;;;5049734;28;20448;-71
2022/03/24 10:27:27;;;;;;;18.80;15.17;;;18.70;91.70;;;;;;5050187;28;20530;-72
2022/03/24 10:29:55;;;;;;;23.93;17.13;;;18.90;91.70;;;;;;5047010;28;20516;-72
2022/03/24 10:32:26;;;;;;;20.60;16.63;;;19.10;90.50;;;;;;5047495;28;20476;-73
2022/03/24 10:34:58;;;;;;;22.53;16.40;;;19.20;90.40;;;;;;5058480;28;20514;-72
2022/03/24 10:37:27;;;;;;;21.73;15.87;;;19.20;89.50;;;;;;5060875;28;20478;-71
2022/03/24 10:40:02;;;;;;;15.70;14.10;;;19.40;90.00;;;;;;5051159;28;20443;-72
2022/03/24 10:42:30;;;;;;;18.30;15.83;;;19.60;88.80;;;;;;5040761;28;20490;-72
2022/03/24 10:45:10;;;;;;;28.80;16.87;;;19.90;88.70;;;;;;5049338;28;20513;-74
2022/03/24 10:47:39;;;;;;;22.03;16.17;;;20.10;87.70;;;;;;5046543;28;20463;-72
2022/03/24 10:50:39;;;;;;;23.33;17.27;;;20.30;86.10;;;;;;5048754;28;20475;-73
2022/03/24 10:53:07;;;;;;;23.27;17.50;;;20.50;83.20;;;;;;5047502;28;20495;-74
2022/03/24 10:55:47;;;;;;;21.60;16.33;;;20.60;81.40;;;;;;5046444;28;20461;-73
2022/03/24 10:58:19;;;;;;;21.30;16.00;;;20.80;79.70;;;;;;5045660;28;20463;-75
2022/03/24 11:00:48;;;;;;;23.80;16.17;;;20.90;81.40;;;;;;5044171;28;20506;-72
2022/03/24 11:03:16;;;;;;;18.53;16.03;;;21.10;78.90;;;;;;5046269;28;20487;-65
2022/03/24 11:05:42;;;;;;;22.40;15.90;;;21.20;78.00;;;;;;5043693;28;20893;-65
2022/03/24 11:08:09;;;;;;;22.90;18.33;;;21.40;80.00;;;;;;5041945;28;20521;-66
2022/03/24 11:10:45;;;;;;;20.90;14.60;;;21.50;76.30;;;;;;5041793;28;20515;-65
2022/03/24 11:13:14;;;;;;;21.10;16.20;;;21.50;78.80;;;;;;5041974;28;20487;-65
2022/03/24 11:15:42;;;;;;;20.33;15.93;;;21.60;76.20;;;;;;5044206;28;20807;-65
2022/03/24 11:18:09;;;;;;;25.57;17.60;;;21.70;74.40;;;;;;5052529;28;20499;-65
2022/03/24 11:20:38;;;;;;;22.00;15.80;;;21.80;74.60;;;;;;5042805;28;21073;-67
2022/03/24 11:23:13;;;;;;;19.80;15.90;;;22.00;75.00;;;;;;5050802;28;20683;-65
2022/03/24 11:25:40;;;;;;;16.70;13.53;;;22.40;76.10;;;;;;5042755;28;20521;-66
2022/03/24 11:28:11;;;;;;;20.43;14.63;;;22.70;73.30;;;;;;5042134;28;20566;-65
2022/03/24 11:30:38;;;;;;;12.60;10.43;;;23.20;71.70;;;;;;5042414;28;20448;-66
2022/03/24 11:33:05;;;;;;;17.57;11.03;;;23.50;66.60;;;;;;5048305;28;20845;-65
2022/03/24 11:35:35;;;;;;;10.57;8.37;;;23.90;66.30;;;;;;5046185;28;20516;-65
2022/03/24 11:38:03;;;;;;;11.10;9.20;;;24.50;66.90;;;;;;5044751;28;20529;-66
2022/03/24 11:40:31;;;;;;;11.47;8.10;;;25.20;64.00;;;;;;5047665;28;20785;-65
2022/03/24 11:43:01;;;;;;;11.60;9.07;;;25.60;58.60;;;;;;5042718;28;20467;-66
2022/03/24 11:45:33;;;;;;;10.73;6.97;;;26.00;57.50;;;;;;5045752;28;20961;-67
2022/03/24 11:48:05;;;;;;;6.30;4.60;;;26.50;57.40;;;;;;5043702;28;20447;-67
2022/03/24 11:50:41;;;;;;;10.07;7.47;;;27.00;57.20;;;;;;5043332;28;20672;-67
2022/03/24 11:53:10;;;;;;;7.43;6.73;;;27.90;55.00;;;;;;5052674;28;20550;-67
2022/03/24 11:55:37;;;;;;;8.03;5.87;;;28.50;57.10;;;;;;5051466;28;20613;-69
2022/03/24 11:58:04;;;;;;;;;;;29.20;53.00;;;;;;5043322;28;20563;-68
2022/03/24 12:00:42;;;;;;;8.37;6.63;;;29.70;51.00;;;;;;5042608;28;20290;-68
2022/03/24 12:03:44;;;;;;;10.13;6.77;;;30.50;50.00;;;;;;5043590;28;20515;-67
2022/03/24 12:06:13;;;;;;;5.97;5.47;;;31.00;48.70;;;;;;5047164;28;21427;-67
2022/03/24 12:08:52;;;;;;;19.58;8.48;;;31.80;46.40;;;;;;5049791;28;20454;-67
2022/03/24 12:11:38;;;;;;;;;;;32.30;44.70;;;;;;5049550;28;20218;-67
2022/03/24 12:14:08;;;;;;;5.82;4.68;;;32.70;42.70;;;;;;5040862;28;20491;-67
2022/03/24 12:16:39;;;;;;;5.07;4.17;;;32.90;43.20;;;;;;5048603;28;20227;-67
2022/03/24 12:19:07;;;;;;;9.20;5.50;;;33.50;43.10;;;;;;5048854;28;20585;-65
2022/03/24 12:21:34;;;;;;;6.50;5.67;;;33.90;42.70;;;;;;5054292;28;20535;-65
2022/03/24 12:24:09;;;;;;;5.90;4.60;;;33.90;42.10;;;;;;5046523;28;20480;-64
2022/03/24 12:26:39;;;;;;;6.47;5.57;;;34.40;41.70;;;;;;5044162;28;20980;-65
2022/03/24 12:29:24;;;;;;;5.77;4.60;;;34.90;39.90;;;;;;5045600;28;20418;-64
2022/03/24 12:32:05;;;;;;;6.97;4.13;;;35.30;41.50;;;;;;5048858;28;20503;-63
2022/03/24 12:34:44;;;;;;;4.57;4.17;;;35.70;37.60;;;;;;5046348;28;21066;-67
2022/03/24 12:37:41;;;;;;;7.37;6.57;;;35.60;36.40;;;;;;5049849;28;20554;-67
2022/03/24 12:40:12;;;;;;;8.03;6.17;;;35.60;36.50;;;;;;5045292;28;20470;-66
2022/03/24 12:42:43;;;;;;;8.20;5.10;;;34.90;35.30;;;;;;5047483;28;20488;-65
2022/03/24 12:45:11;;;;;;;6.10;5.47;;;35.00;39.70;;;;;;5045797;28;20455;-64
2022/03/24 12:47:43;;;;;;;7.10;5.90;;;35.00;36.60;;;;;;5042850;28;20599;-66